Detall de PIREP

Printer-friendly versionPDF version

[2013/12/31 08:04:00]
Flight IATA:CT1004
Pilot Number:012
Company ICAO:CAT
Aircraft Type:MD11/E
PAX:240
Aircraft Registration:PAX
Departing Airport: EDDH
Destination Airport: LEBL
Alternate Airport:LEPA
Online: VATSIM
Route:BASUM/M080F320 UM170 KENUM UM615 GESLO/M080F330 UN852 DIVKO UN975 BISBA
Flight Level:F330
No Slew and time accel
No pause
Crash detect
Detect pilot in Cockpit between each 30 and 45 minutes
08:04 Zero fuel Weight: 375136 Lbs, Fuel Weight: 69843 Lbs
08:04 VATSIM:EDDH 310750Z 15009KT 9999 FEW046 03/01 Q1018 NOSIG
08:04 VATSIM:LEBL 310730Z 33012G25KT 310V010 9999 FEW020 03/M00 Q1021 NOSIG
08:04 VOICE CATALONIAN / XMAS CHARTER
08:07 Parking Brakes off
08:14 Take-off
08:14 Take off Weight: 443371 Lbs
08:14 Wind: 147º @ 009 Knots Heading: 153º
08:14 POS N53º 38´ 30´´ E009º 59´ 10´´
08:14 Gear Up: 201 Knots
08:14 Flaps:3 at 201 Knots
08:16 Flaps:2 at 239 Knots
08:16 Flaps:3 at 241 Knots
08:16 Flaps:2 at 243 Knots
08:16 Flaps:1 at 244 Knots
08:16 Flaps:0 at 248 Knots
08:29 Wind:253º@045 Knots Heading: 212º Ground Speed: 434 Knots Altitude 32135 ft
08:44 Wind:282º@049 Knots Heading: 217º Ground Speed: 451 Knots Altitude 32099 ft
08:53 TOC
08:53 Fuel Weight: 53032 Lb
08:59 Wind:287º@043 Knots Heading: 158º Ground Speed: 494 Knots Altitude 33120 ft
09:14 Wind:296º@029 Knots Heading: 197º Ground Speed: 471 Knots Altitude 33175 ft
09:29 Wind:309º@012 Knots Heading: 176º Ground Speed: 473 Knots Altitude 33248 ft
09:44 Wind:311º@034 Knots Heading: 204º Ground Speed: 483 Knots Altitude 33261 ft
09:54 TOD
09:54 Fuel Weight: 37471 Lb
09:59 Wind:291º@035 Knots Heading: 224º Ground Speed: 394 Knots Altitude 25223 ft
10:14 Wind:292º@004 Knots Heading: 238º Ground Speed: 237 Knots Altitude 3553 ft
10:15 Flaps:1 at 241 Knots
10:15 Flaps:2 at 246 Knots
10:15 Flaps:3 at 246 Knots
10:16 Gear Down: 226 Knots
10:16 Flaps:4 at 217 Knots
10:16 Flaps:3 at 214 Knots
10:16 Flaps:4 at 212 Knots
10:16 Flaps:5 at 206 Knots
10:16 Flaps:6 at 201 Knots
10:16 Flaps:7 at 177 Knots
10:19 TouchDown:Rate -173 ft/min Speed: 172 Knots
10:19 VATSIM:LEBL 311000Z 32008KT 260V350 9999 FEW020 06/00 Q1021 NOSIG
10:19 Land
10:19 Wind:313º@009 Knots
10:19 Heading: 246º
10:19 Flight Duration: 02:05
10:19 Landing Weight: 408827 Lbs
10:19 POS N41º 17´ 56´´ E002º 05´ 04´´
10:22 Parking brakes on
10:22 Block to Block Duration: 02:15
10:22 Final Fuel: 33326 Lbls
10:22 Spent Fuel: 36516 Lbls
10:22 Flight Length: 887 NM
10:22 TOD Land Length: 128 NM

Exportar CSV

Powered by Drupal - Modified by Danger4k